Relevés horaires Bierset (Belgique)


Relevés horaires à Bierset - Lundi 02 Juill. 2018
Heure UTC1 Température [°C] Vent [km/h] Hum. [%] Pres.4 [hPa] Visi. [Km] Nébu. [octa] Préc.5 [mm] Cond.
2m. Res. Ros. Dir.2 Vit. Moy. Raf.3
23:00 18.9 18.9 5.6 ENE 5.6 7.4 13.0 42 1016.4(1.2/3h) 40 0/8 -- --
22:00 19.7 19.7 6.2 NE 5.6 9.3 13.0 41 1016(1.5/3h) 40 0/8 -- --
21:00 21.5 21.5 6.7 ENE 9.3 9.3 16.7 38 1015.4(1.0/3h) 40 0/8 -- --
20:00 21.8 21.8 7.5 NE 7.4 9.3 16.7 40 1014.9(0.8/3h) 40 0/8 -- --
19:00 24.3 24.3 6.1 NE 7.4 9.3 14.8 31 1014.2(0.1/3h) 40 0/8 -- --
18:00 25.8 25.8 5.4 ENE 9.3 13.0 22.2 27 1014(0.1/3h) 40 0/8 0/12h
--
17:00 26.4 26.4 4.7 NE 11.1 13.0 16.7 25 1013.8(-0.1/3h) 35 0/8 -- --
16:00 26.6 26.6 5.6 NE 13.0 13.0 22.2 26 1013.9(-0.3/3h) 35 1/8 -- --
15:00 27.0 27.0 6.7 NNE 13.0 13.0 20.4 28 1013.8(-0.4/3h) 35 1/8 -- --
14:00 26.1 26.1 6.6 NE 13.0 13.0 20.4 29 1014(-0.5/3h) 35 0/8 -- --
13:00 26.6 26.6 7.6 ENE 9.3 11.1 20.4 30 1014.2(-0.1/3h) 35 0/8 -- --
12:00 25.8 25.8 7.6 NE 11.1 14.8 20.4 31 1014.3(-0.2/3h) 35 0/8 0/6h
--
11:00 25.2 25.2 8.2 ENE 11.1 14.8 20.4 34 1014.5(0.0/3h) 35 0/8 -- --
10:00 24.0 24.0 8.2 NE 13.0 13.0 16.7 36 1014.5(0.0/3h) 40 0/8 -- --
09:00 22.6 22.6 9.4 N 7.4 7.4 13.0 43 1014.6(0.5/3h) 45 0/8 -- --
08:00 20.9 20.9 8.0 NNE 5.6 5.6 11.1 43 1014.8(0.6/3h) 45 0/8 -- --
07:00 19.3 19.3 6.2 ESE 5.6 5.6 9.3 42 1014.8(0.4/3h) 45 0/8 -- --
06:00 17.9 17.9 5.5 E 5.6 7.4 18.5 44 1014.5(0.3/3h) 30 0/8 0/12h
--
05:00 15.9 15.9 5.7 ENE 5.6 5.6 7.4 51 1014.5(0.0/3h) 30 0/8 -- --
04:00 15.5 15.5 4.7 E 3.7 5.6 9.3 49 1014.7(0.1/3h) 30 0/8 -- --
03:00 15.8 15.8 4.6 E 3.7 7.4 14.8 47 1014.4(-0.1/3h) 30 0/8 -- --
02:00 17.1 17.1 4.4 NNO 5.6 5.6 14.8 43 1014.5(-0.3/3h) 30 0/8 -- --
01:00 17.6 17.6 5.0 SE 5.6 7.4 14.8 43 1014.4(-0.5/3h) 30 0/8 -- --
00:00 18.9 18.9 4.9 ESE 5.6 11.1 22.2 40 1014.3(-0.2/3h) 30 0/8 0/6h
0/24h
--

1 Coordinated Universal Time. Actuellement il est 09:00 locale et 07:00 UTC.

2 Le vent souffle depuis la direction indiquée vers la direction oposée.

3 Les rafales max. sont disponible 40 min après l'heure du relevé.

4 Pour les stations d'altitude (plus de 600m) le géopotentiel du niveau le plus proche de la pression obligatoire est indiqué.

5 Les stations disposant d'un diffuseur peuvent indiquer "trace". Cela signifie que des précipitations ont touchés le sol mais que la quantité est inférieure à 0.1 mm.

Récapitulatif de la journée
Température [°C] Vent [km/h] Ensoleillement4 [h] Precipitations totale5 [mm] Pression [Hpa]
Min1 Max.2 Moy.3 Max. Min Max.
14.0 27.4 9.7 22.2 0 h 0 min 0 1013.8 1016.4

1 Température minimale relevée entre 18:00 UTC la veille et 18:00 UTC le jour donné.

2 Température maximale relevée entre 06:00 UTC le jour donné et 06:00 UTC le lendemain.

3 Vent moyen de la journée basé sur les relevés horaires.

4 Ensoleillement en heures relevé entre 06:00 UTC la veille et 06:00 UTC le jour donné.

5 Précipitations totales tombées entre 06:00 UTC la jour donné et 06:00 UTC le lendemain.

Graphiques horaires